sensor_id;sensor_type;location;lat;lon;timestamp;pressure;altitude;pressure_sealevel;temperature;humidity
73558;BME280;61829;53.286;10.434;2023-05-07T00:00:46;101924.44;;;8.21;92.16
73558;BME280;61829;53.286;10.434;2023-05-07T00:03:20;101928.13;;;8.20;92.01
73558;BME280;61829;53.286;10.434;2023-05-07T00:05:48;101928.13;;;8.20;91.45
73558;BME280;61829;53.286;10.434;2023-05-07T00:08:14;101925.44;;;8.20;91.91
73558;BME280;61829;53.286;10.434;2023-05-07T00:10:40;101932.50;;;8.21;91.60
73558;BME280;61829;53.286;10.434;2023-05-07T00:13:06;101929.81;;;8.21;91.36
73558;BME280;61829;53.286;10.434;2023-05-07T00:15:32;101938.88;;;8.20;91.18
73558;BME280;61829;53.286;10.434;2023-05-07T00:17:58;101935.34;;;8.19;91.30
73558;BME280;61829;53.286;10.434;2023-05-07T00:20:26;101926.56;;;8.17;91.55
73558;BME280;61829;53.286;10.434;2023-05-07T00:22:51;101927.13;;;8.21;91.73
73558;BME280;61829;53.286;10.434;2023-05-07T00:25:18;101932.25;;;8.24;90.86
73558;BME280;61829;53.286;10.434;2023-05-07T00:27:45;101932.25;;;8.24;91.28
73558;BME280;61829;53.286;10.434;2023-05-07T00:30:11;101925.88;;;8.25;91.01
73558;BME280;61829;53.286;10.434;2023-05-07T00:32:37;101933.75;;;8.26;91.06
73558;BME280;61829;53.286;10.434;2023-05-07T00:35:05;101927.28;;;8.29;90.90
73558;BME280;61829;53.286;10.434;2023-05-07T00:37:31;101928.97;;;8.30;91.05
73558;BME280;61829;53.286;10.434;2023-05-07T00:39:57;101925.28;;;8.31;90.73
73558;BME280;61829;53.286;10.434;2023-05-07T00:42:25;101923.63;;;8.30;90.80
73558;BME280;61829;53.286;10.434;2023-05-07T00:44:51;101916.53;;;8.29;90.22
73558;BME280;61829;53.286;10.434;2023-05-07T00:47:17;101923.63;;;8.30;90.03
73558;BME280;61829;53.286;10.434;2023-05-07T00:49:44;101916.41;;;8.30;89.70
73558;BME280;61829;53.286;10.434;2023-05-07T00:52:15;101927.84;;;8.32;89.75
73558;BME280;61829;53.286;10.434;2023-05-07T00:54:43;101925.28;;;8.31;89.41
73558;BME280;61829;53.286;10.434;2023-05-07T00:57:10;101911.88;;;8.31;89.03
73558;BME280;61829;53.286;10.434;2023-05-07T00:59:37;101922.47;;;8.32;89.23
73558;BME280;61829;53.286;10.434;2023-05-07T01:02:38;101919.22;;;8.29;88.62
73558;BME280;61829;53.286;10.434;2023-05-07T01:05:07;101915.56;;;8.30;88.71
73558;BME280;61829;53.286;10.434;2023-05-07T01:07:35;101905.50;;;8.32;88.59
73558;BME280;61829;53.286;10.434;2023-05-07T01:10:03;101910.03;;;8.31;88.67
73558;BME280;61829;53.286;10.434;2023-05-07T01:12:29;101906.50;;;8.31;88.84
73558;BME280;61829;53.286;10.434;2023-05-07T01:14:57;101904.81;;;8.30;89.11
73558;BME280;61829;53.286;10.434;2023-05-07T01:17:23;101899.88;;;8.25;89.09
73558;BME280;61829;53.286;10.434;2023-05-07T01:19:49;101903.69;;;8.23;89.53
73558;BME280;61829;53.286;10.434;2023-05-07T01:22:16;101899.03;;;8.25;89.15
73558;BME280;61829;53.286;10.434;2023-05-07T01:24:47;101906.38;;;8.23;88.79
73558;BME280;61829;53.286;10.434;2023-05-07T01:27:13;101908.06;;;8.24;88.44
73558;BME280;61829;53.286;10.434;2023-05-07T01:29:38;101909.03;;;8.23;88.14
73558;BME280;61829;53.286;10.434;2023-05-07T01:32:08;101903.25;;;8.18;88.01
73558;BME280;61829;53.286;10.434;2023-05-07T01:34:37;101900.84;;;8.15;88.34
73558;BME280;61829;53.286;10.434;2023-05-07T01:37:03;101899.00;;;8.15;88.71
73558;BME280;61829;53.286;10.434;2023-05-07T01:39:29;101908.06;;;8.14;88.79
73558;BME280;61829;53.286;10.434;2023-05-07T01:41:56;101901.44;;;8.18;89.01
73558;BME280;61829;53.286;10.434;2023-05-07T01:44:23;101906.38;;;8.23;88.68
73558;BME280;61829;53.286;10.434;2023-05-07T01:46:49;101901.84;;;8.23;88.48
73558;BME280;61829;53.286;10.434;2023-05-07T01:49:16;101905.22;;;8.25;88.77
73558;BME280;61829;53.286;10.434;2023-05-07T01:51:42;101911.72;;;8.23;88.74
73558;BME280;61829;53.286;10.434;2023-05-07T01:54:09;101898.59;;;8.20;89.07
73558;BME280;61829;53.286;10.434;2023-05-07T01:56:35;101907.38;;;8.22;89.08
73558;BME280;61829;53.286;10.434;2023-05-07T01:59:01;101902.97;;;8.21;89.31
73558;BME280;61829;53.286;10.434;2023-05-07T02:01:27;101908.50;;;8.19;89.41
73558;BME280;61829;53.286;10.434;2023-05-07T02:03:53;101910.06;;;8.22;90.02
73558;BME280;61829;53.286;10.434;2023-05-07T02:06:19;101913.44;;;8.24;89.72
73558;BME280;61829;53.286;10.434;2023-05-07T02:08:47;101930.53;;;8.23;90.02
73558;BME280;61829;53.286;10.434;2023-05-07T02:11:12;101924.44;;;8.21;90.10
73558;BME280;61829;53.286;10.434;2023-05-07T02:13:39;101922.47;;;8.23;90.26
73558;BME280;61829;53.286;10.434;2023-05-07T02:16:05;101925.72;;;8.17;90.45
73558;BME280;61829;53.286;10.434;2023-05-07T02:22:11;101925.72;;;8.17;90.54
73558;BME280;61829;53.286;10.434;2023-05-07T02:24:40;101926.44;;;8.19;90.44
73558;BME280;61829;53.286;10.434;2023-05-07T02:27:06;101923.75;;;8.19;90.26
73558;BME280;61829;53.286;10.434;2023-05-07T02:29:32;101925.19;;;8.13;90.33
73558;BME280;61829;53.286;10.434;2023-05-07T02:31:58;101938.44;;;8.15;89.93
73558;BME280;61829;53.286;10.434;2023-05-07T02:34:23;101937.75;;;8.13;89.61
73558;BME280;61829;53.286;10.434;2023-05-07T02:36:49;101933.91;;;8.15;89.27
73558;BME280;61829;53.286;10.434;2023-05-07T02:39:16;101944.53;;;8.17;89.29
73558;BME280;61829;53.286;10.434;2023-05-07T02:41:42;101937.19;;;8.19;89.28
73558;BME280;61829;53.286;10.434;2023-05-07T02:44:08;101944.41;;;8.18;89.30
73558;BME280;61829;53.286;10.434;2023-05-07T02:46:34;101939.16;;;8.17;88.92
73558;BME280;61829;53.286;10.434;2023-05-07T02:49:00;101944.81;;;8.14;88.58
73558;BME280;61829;53.286;10.434;2023-05-07T02:51:26;101942.13;;;8.14;88.63
73558;BME280;61829;53.286;10.434;2023-05-07T02:53:52;101942.41;;;8.10;88.29
73558;BME280;61829;53.286;10.434;2023-05-07T02:56:18;101940.69;;;8.09;88.24
73558;BME280;61829;53.286;10.434;2023-05-07T02:58:44;101944.94;;;8.12;88.49
73558;BME280;61829;53.286;10.434;2023-05-07T03:01:10;101946.38;;;8.16;88.25
73558;BME280;61829;53.286;10.434;2023-05-07T03:03:35;101936.59;;;8.15;88.25
73558;BME280;61829;53.286;10.434;2023-05-07T03:06:02;101930.53;;;8.13;87.46
73558;BME280;61829;53.286;10.434;2023-05-07T03:08:27;101932.09;;;8.16;87.63
73558;BME280;61829;53.286;10.434;2023-05-07T03:10:53;101931.81;;;8.19;87.66
73558;BME280;61829;53.286;10.434;2023-05-07T03:13:19;101935.47;;;8.18;87.54
73558;BME280;61829;53.286;10.434;2023-05-07T03:15:45;101938.03;;;8.19;87.55
73558;BME280;61829;53.286;10.434;2023-05-07T03:18:11;101932.78;;;8.18;87.80
73558;BME280;61829;53.286;10.434;2023-05-07T03:20:37;101937.19;;;8.19;87.96
73558;BME280;61829;53.286;10.434;2023-05-07T03:23:03;101933.38;;;8.21;87.72
73558;BME280;61829;53.286;10.434;2023-05-07T03:25:29;101947.63;;;8.22;88.17
73558;BME280;61829;53.286;10.434;2023-05-07T03:27:57;101946.63;;;8.23;87.85
73558;BME280;61829;53.286;10.434;2023-05-07T03:30:24;101940.56;;;8.21;88.23
73558;BME280;61829;53.286;10.434;2023-05-07T03:32:49;101946.22;;;8.18;88.12
73558;BME280;61829;53.286;10.434;2023-05-07T03:35:15;101945.38;;;8.17;88.27
73558;BME280;61829;53.286;10.434;2023-05-07T03:37:42;101944.53;;;8.17;87.91
73558;BME280;61829;53.286;10.434;2023-05-07T03:40:08;101939.88;;;8.19;88.23
73558;BME280;61829;53.286;10.434;2023-05-07T03:42:35;101942.56;;;8.19;87.58
73558;BME280;61829;53.286;10.434;2023-05-07T03:45:01;101943.53;;;8.18;87.63
73558;BME280;61829;53.286;10.434;2023-05-07T03:47:27;101948.91;;;8.18;88.13
73558;BME280;61829;53.286;10.434;2023-05-07T03:49:53;101944.53;;;8.17;87.92
73558;BME280;61829;53.286;10.434;2023-05-07T03:52:20;101944.41;;;8.18;88.31
73558;BME280;61829;53.286;10.434;2023-05-07T03:54:50;101947.09;;;8.18;88.18
73558;BME280;61829;53.286;10.434;2023-05-07T03:57:15;101932.78;;;8.18;88.09
73558;BME280;61829;53.286;10.434;2023-05-07T03:59:42;101946.22;;;8.18;88.23
73558;BME280;61829;53.286;10.434;2023-05-07T04:02:07;101945.38;;;8.17;88.38
73558;BME280;61829;53.286;10.434;2023-05-07T04:04:33;101949.59;;;8.20;89.07
73558;BME280;61829;53.286;10.434;2023-05-07T04:06:59;101951.28;;;8.21;88.50
73558;BME280;61829;53.286;10.434;2023-05-07T04:09:26;101952.84;;;8.23;88.41
73558;BME280;61829;53.286;10.434;2023-05-07T04:11:51;101945.66;;;8.24;88.41
73558;BME280;61829;53.286;10.434;2023-05-07T04:14:17;101947.34;;;8.25;88.35
73558;BME280;61829;53.286;10.434;2023-05-07T04:16:43;101946.50;;;8.24;88.44
73558;BME280;61829;53.286;10.434;2023-05-07T04:19:09;101948.47;;;8.22;88.20
73558;BME280;61829;53.286;10.434;2023-05-07T04:21:34;101956.53;;;8.22;88.52
73558;BME280;61829;53.286;10.434;2023-05-07T04:24:03;101959.09;;;8.24;88.75
73558;BME280;61829;53.286;10.434;2023-05-07T04:26:28;101952.16;;;8.21;88.61
73558;BME280;61829;53.286;10.434;2023-05-07T04:28:55;101962.03;;;8.21;88.70
73558;BME280;61829;53.286;10.434;2023-05-07T04:31:20;101961.34;;;8.19;89.03
73558;BME280;61829;53.286;10.434;2023-05-07T04:33:46;101956.66;;;8.21;88.72
73558;BME280;61829;53.286;10.434;2023-05-07T04:36:12;101948.78;;;8.19;89.16
73558;BME280;61829;53.286;10.434;2023-05-07T04:38:38;101959.34;;;8.21;89.17
73558;BME280;61829;53.286;10.434;2023-05-07T04:41:05;101962.75;;;8.23;89.39
73558;BME280;61829;53.286;10.434;2023-05-07T04:43:31;101959.78;;;8.26;89.12
73558;BME280;61829;53.286;10.434;2023-05-07T04:45:57;101951.31;;;8.30;89.30
73558;BME280;61829;53.286;10.434;2023-05-07T04:48:24;101962.75;;;8.32;88.88
73558;BME280;61829;53.286;10.434;2023-05-07T04:50:50;101963.59;;;8.33;89.28
73558;BME280;61829;53.286;10.434;2023-05-07T04:53:17;101967.59;;;8.39;88.91
73558;BME280;61829;53.286;10.434;2023-05-07T04:55:43;101971.13;;;8.39;88.41
73558;BME280;61829;53.286;10.434;2023-05-07T04:58:13;101976.22;;;8.42;88.57
73558;BME280;61829;53.286;10.434;2023-05-07T05:00:39;101975.22;;;8.43;88.88
73558;BME280;61829;53.286;10.434;2023-05-07T05:03:08;101981.44;;;8.44;88.88
73558;BME280;61829;53.286;10.434;2023-05-07T05:05:34;101981.59;;;8.42;88.01
73558;BME280;61829;53.286;10.434;2023-05-07T05:08:00;101990.34;;;8.44;88.22
73558;BME280;61829;53.286;10.434;2023-05-07T05:10:26;101990.34;;;8.44;88.13
73558;BME280;61829;53.286;10.434;2023-05-07T05:12:52;101983.69;;;8.48;88.13
73558;BME280;61829;53.286;10.434;2023-05-07T05:15:18;101987.38;;;8.47;88.01
73558;BME280;61829;53.286;10.434;2023-05-07T05:17:44;101973.94;;;8.47;88.11
73558;BME280;61829;53.286;10.434;2023-05-07T05:20:09;101990.91;;;8.48;87.65
73558;BME280;61829;53.286;10.434;2023-05-07T05:22:37;101990.19;;;8.46;86.93
73558;BME280;61829;53.286;10.434;2023-05-07T05:25:03;101987.38;;;8.47;87.10
73558;BME280;61829;53.286;10.434;2023-05-07T05:27:29;101979.88;;;8.51;87.07
73558;BME280;61829;53.286;10.434;2023-05-07T05:29:55;101985.97;;;8.53;86.89
73558;BME280;61829;53.286;10.434;2023-05-07T05:32:21;101976.78;;;8.56;87.15
73558;BME280;61829;53.286;10.434;2023-05-07T05:34:47;101985.81;;;8.54;86.94
73558;BME280;61829;53.286;10.434;2023-05-07T05:37:13;101989.38;;;8.55;86.59
73558;BME280;61829;53.286;10.434;2023-05-07T05:39:39;101989.19;;;8.57;86.90
73558;BME280;61829;53.286;10.434;2023-05-07T05:42:05;101986.94;;;8.62;87.04
73558;BME280;61829;53.286;10.434;2023-05-07T05:44:30;101993.72;;;8.66;87.08
73558;BME280;61829;53.286;10.434;2023-05-07T05:46:57;101992.03;;;8.65;86.48
73558;BME280;61829;53.286;10.434;2023-05-07T05:49:25;101993.03;;;8.64;86.56
73558;BME280;61829;53.286;10.434;2023-05-07T05:51:51;101988.03;;;8.69;86.61
73558;BME280;61829;53.286;10.434;2023-05-07T05:54:17;102001.22;;;8.72;86.23
73558;BME280;61829;53.286;10.434;2023-05-07T05:56:43;101994.69;;;8.74;86.00
73558;BME280;61829;53.286;10.434;2023-05-07T05:59:08;102009.66;;;8.77;85.90
73558;BME280;61829;53.286;10.434;2023-05-07T06:01:34;102008.53;;;8.80;86.03
73558;BME280;61829;53.286;10.434;2023-05-07T06:04:00;102005.56;;;8.83;85.68
73558;BME280;61829;53.286;10.434;2023-05-07T06:06:26;102007.28;;;8.84;85.50
73558;BME280;61829;53.286;10.434;2023-05-07T06:08:52;102006.56;;;8.82;85.59
73558;BME280;61829;53.286;10.434;2023-05-07T06:11:18;102010.66;;;8.86;86.19
73558;BME280;61829;53.286;10.434;2023-05-07T06:13:44;102006.44;;;8.83;85.75
73558;BME280;61829;53.286;10.434;2023-05-07T06:16:10;102013.22;;;8.77;85.91
73558;BME280;61829;53.286;10.434;2023-05-07T06:18:36;102016.06;;;8.76;85.62
73558;BME280;61829;53.286;10.434;2023-05-07T06:21:02;102023.69;;;8.81;86.04
73558;BME280;61829;53.286;10.434;2023-05-07T06:23:27;102013.50;;;8.84;85.98
73558;BME280;61829;53.286;10.434;2023-05-07T06:25:53;102017.31;;;8.82;85.85
73558;BME280;61829;53.286;10.434;2023-05-07T06:28:19;102020.00;;;8.82;85.46
73558;BME280;61829;53.286;10.434;2023-05-07T06:30:45;102022.28;;;8.86;85.70
73558;BME280;61829;53.286;10.434;2023-05-07T06:33:11;102023.97;;;8.87;84.74
73558;BME280;61829;53.286;10.434;2023-05-07T06:35:39;102025.63;;;8.88;84.86
73558;BME280;61829;53.286;10.434;2023-05-07T06:38:05;102023.97;;;8.87;84.71
73558;BME280;61829;53.286;10.434;2023-05-07T06:40:31;102019.84;;;8.93;85.23
73558;BME280;61829;53.286;10.434;2023-05-07T06:42:57;102026.19;;;9.02;84.86
73558;BME280;61829;53.286;10.434;2023-05-07T06:45:22;102025.59;;;9.08;84.61
73558;BME280;61829;53.286;10.434;2023-05-07T06:47:49;102020.38;;;9.06;83.89
73558;BME280;61829;53.286;10.434;2023-05-07T06:50:16;102020.09;;;9.09;84.26
73558;BME280;61829;53.286;10.434;2023-05-07T06:52:43;102014.25;;;9.14;83.89
73558;BME280;61829;53.286;10.434;2023-05-07T06:55:09;102025.28;;;9.20;83.90
73558;BME280;61829;53.286;10.434;2023-05-07T06:57:35;102031.78;;;9.28;84.26
73558;BME280;61829;53.286;10.434;2023-05-07T07:00:00;102027.09;;;9.30;83.72
73558;BME280;61829;53.286;10.434;2023-05-07T07:02:26;102030.34;;;9.33;83.81
73558;BME280;61829;53.286;10.434;2023-05-07T07:04:52;102030.34;;;9.33;83.87
73558;BME280;61829;53.286;10.434;2023-05-07T07:07:18;102033.56;;;9.37;83.56
73558;BME280;61829;53.286;10.434;2023-05-07T07:09:44;102037.25;;;9.36;83.93
73558;BME280;61829;53.286;10.434;2023-05-07T07:12:10;102032.06;;;9.34;84.13
73558;BME280;61829;53.286;10.434;2023-05-07T07:14:37;102033.31;;;9.30;83.88
73558;BME280;61829;53.286;10.434;2023-05-07T07:17:06;102032.31;;;9.31;84.07
73558;BME280;61829;53.286;10.434;2023-05-07T07:19:32;102026.50;;;9.36;84.44
73558;BME280;61829;53.286;10.434;2023-05-07T07:21:58;102034.56;;;9.36;84.27
73558;BME280;61829;53.286;10.434;2023-05-07T07:24:24;102037.13;;;9.37;84.26
73558;BME280;61829;53.286;10.434;2023-05-07T07:26:50;102038.81;;;9.38;84.07
73558;BME280;61829;53.286;10.434;2023-05-07T07:29:16;102038.38;;;9.43;83.71
73558;BME280;61829;53.286;10.434;2023-05-07T07:31:44;102027.47;;;9.44;82.90
73558;BME280;61829;53.286;10.434;2023-05-07T07:34:09;102033.97;;;9.52;82.94
73558;BME280;61829;53.286;10.434;2023-05-07T07:36:36;102030.25;;;9.53;81.80
73558;BME280;61829;53.286;10.434;2023-05-07T07:39:02;102034.50;;;9.55;82.10
73558;BME280;61829;53.286;10.434;2023-05-07T07:41:28;102036.06;;;9.58;82.70
73558;BME280;61829;53.286;10.434;2023-05-07T07:43:53;102042.81;;;9.62;82.49
73558;BME280;61829;53.286;10.434;2023-05-07T07:46:21;102038.84;;;9.66;82.47
73558;BME280;61829;53.286;10.434;2023-05-07T07:48:47;102031.44;;;9.68;81.98
73558;BME280;61829;53.286;10.434;2023-05-07T07:51:13;102034.25;;;9.76;82.19
73558;BME280;61829;53.286;10.434;2023-05-07T07:53:39;102043.03;;;9.78;81.21
73558;BME280;61829;53.286;10.434;2023-05-07T07:56:07;102040.34;;;9.78;81.21
73558;BME280;61829;53.286;10.434;2023-05-07T07:58:32;102038.88;;;9.84;80.92
73558;BME280;61829;53.286;10.434;2023-05-07T08:00:59;102035.44;;;9.92;80.68
73558;BME280;61829;53.286;10.434;2023-05-07T08:03:24;102047.88;;;10.02;80.80
73558;BME280;61829;53.286;10.434;2023-05-07T08:05:50;102043.75;;;9.98;80.11
73558;BME280;61829;53.286;10.434;2023-05-07T08:08:16;102041.06;;;9.98;80.31
73558;BME280;61829;53.286;10.434;2023-05-07T08:10:43;102050.38;;;10.04;80.51
73558;BME280;61829;53.286;10.434;2023-05-07T08:13:10;102046.41;;;10.08;79.99
73558;BME280;61829;53.286;10.434;2023-05-07T08:15:36;102046.25;;;10.09;80.07
73558;BME280;61829;53.286;10.434;2023-05-07T08:18:02;102055.16;;;10.10;79.99
73558;BME280;61829;53.286;10.434;2023-05-07T08:20:28;102052.94;;;10.05;79.40
73558;BME280;61829;53.286;10.434;2023-05-07T08:22:55;102060.72;;;10.08;79.11
73558;BME280;61829;53.286;10.434;2023-05-07T08:25:23;102052.09;;;10.05;79.34
73558;BME280;61829;53.286;10.434;2023-05-07T08:27:49;102058.16;;;10.07;79.32
73558;BME280;61829;53.286;10.434;2023-05-07T08:30:15;102061.13;;;10.14;79.36
73558;BME280;61829;53.286;10.434;2023-05-07T08:32:43;102058.97;;;10.17;78.61
73558;BME280;61829;53.286;10.434;2023-05-07T08:35:09;102053.97;;;10.22;78.53
73558;BME280;61829;53.286;10.434;2023-05-07T08:37:35;102049.13;;;10.26;79.22
73558;BME280;61829;53.286;10.434;2023-05-07T08:40:01;102049.06;;;10.36;79.10
73558;BME280;61829;53.286;10.434;2023-05-07T08:42:27;102055.78;;;10.49;79.06
73558;BME280;61829;53.286;10.434;2023-05-07T08:44:57;102064.03;;;10.48;77.73
73558;BME280;61829;53.286;10.434;2023-05-07T08:47:28;102068.84;;;10.44;78.00
73558;BME280;61829;53.286;10.434;2023-05-07T08:49:55;102066.53;;;10.49;78.81
73558;BME280;61829;53.286;10.434;2023-05-07T08:52:21;102072.19;;;10.56;78.22
73558;BME280;61829;53.286;10.434;2023-05-07T08:54:47;102081.34;;;10.63;77.79
73558;BME280;61829;53.286;10.434;2023-05-07T08:57:13;102082.19;;;10.64;77.14
73558;BME280;61829;53.286;10.434;2023-05-07T08:59:40;102084.88;;;10.64;76.68
73558;BME280;61829;53.286;10.434;2023-05-07T09:02:08;102079.25;;;10.57;76.39
73558;BME280;61829;53.286;10.434;2023-05-07T09:04:35;102085.28;;;10.51;76.96
73558;BME280;61829;53.286;10.434;2023-05-07T09:07:01;102072.78;;;10.50;76.80
73558;BME280;61829;53.286;10.434;2023-05-07T09:09:33;102082.03;;;10.65;76.97
73558;BME280;61829;53.286;10.434;2023-05-07T09:11:59;102084.88;;;10.64;75.45
73558;BME280;61829;53.286;10.434;2023-05-07T09:14:28;102096.50;;;10.64;75.87
73558;BME280;61829;53.286;10.434;2023-05-07T09:16:53;102093.03;;;10.72;75.78
73558;BME280;61829;53.286;10.434;2023-05-07T09:19:23;102095.34;;;10.67;74.79
73558;BME280;61829;53.286;10.434;2023-05-07T09:22:00;102090.72;;;10.77;75.62
73558;BME280;61829;53.286;10.434;2023-05-07T09:24:27;102099.09;;;10.92;75.38
73558;BME280;61829;53.286;10.434;2023-05-07T09:26:54;102084.31;;;10.96;75.15
73558;BME280;61829;53.286;10.434;2023-05-07T09:29:21;102092.69;;;11.11;75.26
73558;BME280;61829;53.286;10.434;2023-05-07T09:31:46;102095.28;;;11.20;74.44
73558;BME280;61829;53.286;10.434;2023-05-07T09:34:12;102090.91;;;11.19;74.52
73558;BME280;61829;53.286;10.434;2023-05-07T09:36:38;102095.50;;;11.27;73.86
73558;BME280;61829;53.286;10.434;2023-05-07T09:39:04;102091.81;;;11.28;74.09
73558;BME280;61829;53.286;10.434;2023-05-07T09:41:30;102090.47;;;11.32;73.90
73558;BME280;61829;53.286;10.434;2023-05-07T09:43:57;102092.19;;;11.33;73.43
73558;BME280;61829;53.286;10.434;2023-05-07T09:46:29;102089.63;;;11.32;73.05
73558;BME280;61829;53.286;10.434;2023-05-07T09:48:57;102093.53;;;11.37;73.49
73558;BME280;61829;53.286;10.434;2023-05-07T09:51:50;102083.06;;;11.34;72.16
73558;BME280;61829;53.286;10.434;2023-05-07T09:54:18;102092.19;;;11.33;72.87
73558;BME280;61829;53.286;10.434;2023-05-07T09:56:48;102090.78;;;11.29;72.75
73558;BME280;61829;53.286;10.434;2023-05-07T09:59:15;102095.72;;;11.34;72.81
73558;BME280;61829;53.286;10.434;2023-05-07T10:01:43;102100.47;;;11.40;72.37
73558;BME280;61829;53.286;10.434;2023-05-07T10:04:10;102096.28;;;11.45;72.58
73558;BME280;61829;53.286;10.434;2023-05-07T10:06:36;102100.25;;;11.59;73.74
73558;BME280;61829;53.286;10.434;2023-05-07T10:09:04;102104.53;;;11.70;71.52
73558;BME280;61829;53.286;10.434;2023-05-07T10:11:34;102100.69;;;11.73;71.81
73558;BME280;61829;53.286;10.434;2023-05-07T10:14:01;102098.16;;;11.79;71.43
73558;BME280;61829;53.286;10.434;2023-05-07T10:16:31;102097.47;;;11.77;71.32
73558;BME280;61829;53.286;10.434;2023-05-07T10:18:58;102099.31;;;11.77;71.19
73558;BME280;61829;53.286;10.434;2023-05-07T10:21:27;102100.50;;;11.74;72.11
73558;BME280;61829;53.286;10.434;2023-05-07T10:24:03;102104.78;;;11.85;72.05
73558;BME280;61829;53.286;10.434;2023-05-07T10:26:32;102097.84;;;11.82;71.30
73558;BME280;61829;53.286;10.434;2023-05-07T10:29:15;102098.53;;;11.84;71.24
73558;BME280;61829;53.286;10.434;2023-05-07T10:34:43;102103.78;;;11.86;70.93
73558;BME280;61829;53.286;10.434;2023-05-07T10:37:11;102106.88;;;11.99;71.16
73558;BME280;61829;53.286;10.434;2023-05-07T10:39:37;102109.13;;;12.04;70.71
73558;BME280;61829;53.286;10.434;2023-05-07T10:42:13;102101.34;;;12.01;70.54
73558;BME280;61829;53.286;10.434;2023-05-07T10:44:40;102107.72;;;12.00;70.05
73558;BME280;61829;53.286;10.434;2023-05-07T10:47:07;102095.25;;;11.99;70.52
73558;BME280;61829;53.286;10.434;2023-05-07T10:52:16;102109.19;;;12.20;70.13
73558;BME280;61829;53.286;10.434;2023-05-07T10:54:43;102106.44;;;12.12;69.45
73558;BME280;61829;53.286;10.434;2023-05-07T10:59:54;102102.56;;;12.23;68.92
73558;BME280;61829;53.286;10.434;2023-05-07T11:02:19;102103.78;;;12.36;69.56
73558;BME280;61829;53.286;10.434;2023-05-07T11:05:21;102096.06;;;12.58;68.58
73558;BME280;61829;53.286;10.434;2023-05-07T11:07:56;102098.97;;;12.81;68.35
73558;BME280;61829;53.286;10.434;2023-05-07T11:10:23;102097.28;;;12.88;67.65
73558;BME280;61829;53.286;10.434;2023-05-07T11:12:50;102104.72;;;12.86;67.94
73558;BME280;61829;53.286;10.434;2023-05-07T11:15:34;102109.44;;;12.84;67.11
73558;BME280;61829;53.286;10.434;2023-05-07T11:18:00;102097.94;;;12.90;67.29
73558;BME280;61829;53.286;10.434;2023-05-07T11:20:58;102090.50;;;12.92;66.96
73558;BME280;61829;53.286;10.434;2023-05-07T11:26:00;102104.88;;;13.09;65.97
73558;BME280;61829;53.286;10.434;2023-05-07T11:28:28;102102.19;;;12.93;65.35
73558;BME280;61829;53.286;10.434;2023-05-07T11:30:54;102101.34;;;13.09;66.58
73558;BME280;61829;53.286;10.434;2023-05-07T11:33:22;102093.56;;;13.14;65.84
73558;BME280;61829;53.286;10.434;2023-05-07T11:35:48;102101.19;;;13.27;65.72
73558;BME280;61829;53.286;10.434;2023-05-07T11:38:14;102107.09;;;13.30;65.13
73558;BME280;61829;53.286;10.434;2023-05-07T11:40:50;102096.22;;;13.46;65.86
73558;BME280;61829;53.286;10.434;2023-05-07T11:43:16;102101.63;;;13.55;64.89
73558;BME280;61829;53.286;10.434;2023-05-07T11:45:44;102093.66;;;13.61;64.88
73558;BME280;61829;53.286;10.434;2023-05-07T11:48:10;102088.00;;;13.87;65.22
73558;BME280;61829;53.286;10.434;2023-05-07T11:50:36;102086.50;;;14.16;64.51
73558;BME280;61829;53.286;10.434;2023-05-07T11:53:07;102088.75;;;14.35;62.51
73558;BME280;61829;53.286;10.434;2023-05-07T11:55:34;102096.75;;;14.60;61.66
73558;BME280;61829;53.286;10.434;2023-05-07T11:57:59;102105.44;;;14.55;60.43
73558;BME280;61829;53.286;10.434;2023-05-07T12:00:25;102096.25;;;14.25;60.47
73558;BME280;61829;53.286;10.434;2023-05-07T12:06:16;102083.56;;;14.26;62.28
73558;BME280;61829;53.286;10.434;2023-05-07T12:08:43;102085.44;;;14.48;60.53
73558;BME280;61829;53.286;10.434;2023-05-07T12:11:14;102082.47;;;14.66;60.18
73558;BME280;61829;53.286;10.434;2023-05-07T12:13:41;102086.25;;;14.80;59.36
73558;BME280;61829;53.286;10.434;2023-05-07T12:16:08;102085.34;;;14.88;59.60
73558;BME280;61829;53.286;10.434;2023-05-07T12:18:36;102092.19;;;14.84;58.67
73558;BME280;61829;53.286;10.434;2023-05-07T12:21:04;102084.75;;;14.77;59.49
73558;BME280;61829;53.286;10.434;2023-05-07T12:23:31;102084.50;;;14.87;59.00
73558;BME280;61829;53.286;10.434;2023-05-07T12:25:57;102080.22;;;14.93;58.72
73558;BME280;61829;53.286;10.434;2023-05-07T12:28:24;102077.53;;;15.08;59.08
73558;BME280;61829;53.286;10.434;2023-05-07T12:30:51;102076.34;;;15.10;58.24
73558;BME280;61829;53.286;10.434;2023-05-07T12:33:24;102066.06;;;15.20;58.61
73558;BME280;61829;53.286;10.434;2023-05-07T12:35:53;102065.78;;;15.45;58.43
73558;BME280;61829;53.286;10.434;2023-05-07T12:38:20;102071.91;;;15.91;59.03
73558;BME280;61829;53.286;10.434;2023-05-07T12:40:53;102069.81;;;16.08;57.42
73558;BME280;61829;53.286;10.434;2023-05-07T12:43:20;102070.31;;;16.19;55.35
73558;BME280;61829;53.286;10.434;2023-05-07T12:45:48;102075.69;;;16.48;55.54
73558;BME280;61829;53.286;10.434;2023-05-07T12:48:14;102061.75;;;16.58;53.60
73558;BME280;61829;53.286;10.434;2023-05-07T12:50:41;102070.50;;;16.75;53.68
73558;BME280;61829;53.286;10.434;2023-05-07T12:53:10;102070.50;;;16.75;53.18
73558;BME280;61829;53.286;10.434;2023-05-07T12:55:45;102066.25;;;16.87;54.02
73558;BME280;61829;53.286;10.434;2023-05-07T12:58:17;102064.63;;;17.21;53.22
73558;BME280;61829;53.286;10.434;2023-05-07T13:00:44;102067.66;;;17.33;51.82
73558;BME280;61829;53.286;10.434;2023-05-07T13:03:10;102061.03;;;17.48;52.71